Observations for NEWCASTLE, United Kingdom (EGNT)

EGNT 191950Z 33009KT 9999 SCT035 09/08 Q1002
EGNT 191920Z 33010KT 9999 BKN035 08/08 Q1002
EGNT 191850Z 34012KT 9999 BKN020 08/08 Q1001
EGNT 191820Z 33014KT 7000 -RA BKN020 08/08 Q1001
EGNT 191750Z 33015KT 7000 -RA BKN030 08/08 Q1000
EGNT 191720Z 33015KT 6000 -RA BKN025 08/08 Q1000
EGNT 191650Z 32013KT 7000 -RA FEW012 SCT018 08/08 Q1000 
EGNT 191620Z 32011KT 9000 -RA FEW012 SCT018 08/08 Q0999 
EGNT 191550Z 33010KT 300V360 9000 -RA FEW012 SCT025 09/09 Q0999 
EGNT 191520Z 34011KT 8000 -RA FEW012 SCT020 09/09 Q0999 
EGNT 191450Z 34011KT 7000 -RA FEW012 SCT020 09/09 Q0999 
EGNT 191420Z 34011KT 8000 -RA SCT020 09/09 Q0998
EGNT 191350Z 36010KT 320V050 7000 -RADZ BKN013 09/09 Q0998  
EGNT 191320Z 34007KT 6000 -RADZ BKN012 09/09 Q0998  
EGNT 191250Z 36008KT 4500 -RADZ BKN010 09/09 Q0997  
EGNT 191220Z 35008KT 4000 -RA BR BKN010 10/09 Q0997 
EGNT 191150Z 27005KT 240V330 9000 -SHRA BKN012 10/09 Q0997  
EGNT 191120Z 28004KT 9999 VCSH SCT015 10/09 Q0997   
EGNT 191050Z 29005KT 250V330 9999 FEW012 10/09 Q0997
EGNT 191020Z 28004KT 9999 FEW020 09/09 Q0996
EGNT 190950Z 28006KT 9999 FEW020 09/09 Q0996
EGNT 190920Z 27005KT 9999 FEW048 08/08 Q0996
EGNT 190850Z 28006KT 260V350 9999 FEW048 08/08 Q0996
EGNT 190820Z 28006KT 9999 SCT048 06/06 Q0996
EGNT 190750Z 26005KT 9999 SCT048 06/06 Q0995
EGNT 190720Z 25004KT 9999 BKN048 06/06 Q0995
EGNT 190650Z 27004KT 9999 BKN048 06/06 Q0995
EGNT 190620Z 28005KT 9999 FEW010 BKN045 06/06 Q0995 
EGNT 190550Z 28004KT 9999 SCT010 BKN045 06/06 Q0995 
EGNT 190520Z 29004KT 9999 BKN010 06/06 Q0995
EGNT 190450Z 29002KT 9999 SCT010 06/06 Q0995
EGNT 190420Z 28001KT 9999 BKN030 06/06 Q0995
EGNT 190350Z VRB02KT 9999 BKN030 06/06 Q0994
EGNT 190320Z 31004KT 9999 BKN010 06/06 Q0994
EGNT 190250Z 29003KT 9999 BKN010 06/06 Q0994
EGNT 190120Z VRB01KT 9999 SCT045 06/06 Q0994
EGNT 190050Z 22002KT 9999 SCT040 06/06 Q0994
EGNT 190020Z 31003KT 9999 SCT040 06/06 Q0994
EGNT 182350Z 29001KT 9999 MIFG SCT040 06/06 Q0994   
EGNT 182320Z VRB02KT 9999 MIFG SCT035 06/06 Q0994   
EGNT 182250Z 30001KT 9999 MIFG SCT030 06/06 Q0994   
EGNT 182220Z 00000KT 9999 R25/1300 MIFG SCT030 06/06 Q0994  
EGNT 182150Z 00000KT 9999 R25/0650 MIFG SCT030 05/05 Q0994  
EGNT 182120Z 32002KT 9999 SCT035 07/07 Q0994
EGNT 182050Z 32002KT 9999 FEW035 07/07 Q0994
EGNT 182020Z 00000KT 9999 FEW035 07/07 Q0994
EGNT 181950Z VRB01KT 9999 FEW028 07/07 Q0993
EGNT 181920Z 00000KT 9999 FEW028 07/07 Q0993